sensor_id;sensor_type;location;lat;lon;timestamp;temperature;humidity
31133;DHT22;17779;50.942;4.026;2023-06-14T00:00:23;21.20;98.20
31133;DHT22;17779;50.942;4.026;2023-06-14T00:02:48;21.30;98.60
31133;DHT22;17779;50.942;4.026;2023-06-14T00:05:14;21.10;99.80
31133;DHT22;17779;50.942;4.026;2023-06-14T00:07:41;21.00;99.90
31133;DHT22;17779;50.942;4.026;2023-06-14T00:10:10;21.00;99.90
31133;DHT22;17779;50.942;4.026;2023-06-14T00:12:36;21.10;99.90
31133;DHT22;17779;50.942;4.026;2023-06-14T00:15:04;21.00;99.90
31133;DHT22;17779;50.942;4.026;2023-06-14T00:17:29;20.90;99.90
31133;DHT22;17779;50.942;4.026;2023-06-14T00:19:58;20.60;99.90
31133;DHT22;17779;50.942;4.026;2023-06-14T00:22:25;20.40;99.90
31133;DHT22;17779;50.942;4.026;2023-06-14T00:24:51;20.40;99.90
31133;DHT22;17779;50.942;4.026;2023-06-14T00:27:17;20.70;99.90
31133;DHT22;17779;50.942;4.026;2023-06-14T00:29:43;20.70;99.90
31133;DHT22;17779;50.942;4.026;2023-06-14T00:32:09;20.50;99.90
31133;DHT22;17779;50.942;4.026;2023-06-14T00:34:35;20.40;99.90
31133;DHT22;17779;50.942;4.026;2023-06-14T00:37:04;20.50;99.90
31133;DHT22;17779;50.942;4.026;2023-06-14T00:39:29;20.50;99.90
31133;DHT22;17779;50.942;4.026;2023-06-14T00:41:55;20.50;99.90
31133;DHT22;17779;50.942;4.026;2023-06-14T00:44:22;20.60;99.90
31133;DHT22;17779;50.942;4.026;2023-06-14T00:46:47;20.80;99.90
31133;DHT22;17779;50.942;4.026;2023-06-14T00:49:16;21.00;99.90
31133;DHT22;17779;50.942;4.026;2023-06-14T00:51:43;20.90;99.90
31133;DHT22;17779;50.942;4.026;2023-06-14T00:54:10;20.90;99.90
31133;DHT22;17779;50.942;4.026;2023-06-14T00:56:36;20.80;99.90
31133;DHT22;17779;50.942;4.026;2023-06-14T01:01:30;20.90;99.90
31133;DHT22;17779;50.942;4.026;2023-06-14T01:03:59;20.90;99.90
31133;DHT22;17779;50.942;4.026;2023-06-14T01:09:04;20.80;99.90
31133;DHT22;17779;50.942;4.026;2023-06-14T01:11:32;20.80;99.90
31133;DHT22;17779;50.942;4.026;2023-06-14T01:14:01;20.70;99.90
31133;DHT22;17779;50.942;4.026;2023-06-14T01:16:28;20.70;99.90
31133;DHT22;17779;50.942;4.026;2023-06-14T01:18:55;20.60;99.90
31133;DHT22;17779;50.942;4.026;2023-06-14T01:21:23;20.50;99.90
31133;DHT22;17779;50.942;4.026;2023-06-14T01:23:50;20.50;99.90
31133;DHT22;17779;50.942;4.026;2023-06-14T01:26:20;20.40;99.90
31133;DHT22;17779;50.942;4.026;2023-06-14T01:28:49;20.30;99.90
31133;DHT22;17779;50.942;4.026;2023-06-14T01:31:18;20.20;99.90
31133;DHT22;17779;50.942;4.026;2023-06-14T01:33:46;20.10;99.90
31133;DHT22;17779;50.942;4.026;2023-06-14T01:36:11;20.10;99.90
31133;DHT22;17779;50.942;4.026;2023-06-14T01:38:37;20.20;99.90
31133;DHT22;17779;50.942;4.026;2023-06-14T01:41:03;20.20;99.90
31133;DHT22;17779;50.942;4.026;2023-06-14T01:45:58;20.10;99.90
31133;DHT22;17779;50.942;4.026;2023-06-14T01:48:25;20.30;99.90
31133;DHT22;17779;50.942;4.026;2023-06-14T01:50:51;20.40;99.90
31133;DHT22;17779;50.942;4.026;2023-06-14T01:53:17;20.40;99.90
31133;DHT22;17779;50.942;4.026;2023-06-14T01:55:43;20.40;99.90
31133;DHT22;17779;50.942;4.026;2023-06-14T01:58:09;20.40;99.90
31133;DHT22;17779;50.942;4.026;2023-06-14T02:00:35;20.30;99.90
31133;DHT22;17779;50.942;4.026;2023-06-14T02:03:02;20.20;99.90
31133;DHT22;17779;50.942;4.026;2023-06-14T02:05:30;20.00;99.90
31133;DHT22;17779;50.942;4.026;2023-06-14T02:07:56;19.90;99.90
31133;DHT22;17779;50.942;4.026;2023-06-14T02:10:21;19.70;99.90
31133;DHT22;17779;50.942;4.026;2023-06-14T02:12:50;19.60;99.90
31133;DHT22;17779;50.942;4.026;2023-06-14T02:15:17;19.80;99.90
31133;DHT22;17779;50.942;4.026;2023-06-14T02:17:47;19.60;99.90
31133;DHT22;17779;50.942;4.026;2023-06-14T02:20:14;19.70;99.90
31133;DHT22;17779;50.942;4.026;2023-06-14T02:22:42;19.70;99.90
31133;DHT22;17779;50.942;4.026;2023-06-14T02:25:08;19.80;99.90
31133;DHT22;17779;50.942;4.026;2023-06-14T02:27:36;19.80;99.90
31133;DHT22;17779;50.942;4.026;2023-06-14T02:30:02;19.80;99.90
31133;DHT22;17779;50.942;4.026;2023-06-14T02:32:27;19.80;99.90
31133;DHT22;17779;50.942;4.026;2023-06-14T02:34:54;19.80;99.90
31133;DHT22;17779;50.942;4.026;2023-06-14T02:37:20;19.70;99.90
31133;DHT22;17779;50.942;4.026;2023-06-14T02:39:45;19.60;99.90
31133;DHT22;17779;50.942;4.026;2023-06-14T02:42:11;19.50;99.90
31133;DHT22;17779;50.942;4.026;2023-06-14T02:47:06;19.60;99.90
31133;DHT22;17779;50.942;4.026;2023-06-14T02:49:31;19.70;99.90
31133;DHT22;17779;50.942;4.026;2023-06-14T02:51:57;19.60;99.90
31133;DHT22;17779;50.942;4.026;2023-06-14T02:54:25;19.50;99.90
31133;DHT22;17779;50.942;4.026;2023-06-14T02:56:53;19.50;99.90
31133;DHT22;17779;50.942;4.026;2023-06-14T02:59:21;19.50;99.90
31133;DHT22;17779;50.942;4.026;2023-06-14T03:01:50;19.60;99.90
31133;DHT22;17779;50.942;4.026;2023-06-14T03:04:16;19.50;99.90
31133;DHT22;17779;50.942;4.026;2023-06-14T03:06:44;19.20;99.90
31133;DHT22;17779;50.942;4.026;2023-06-14T03:09:16;19.30;99.90
31133;DHT22;17779;50.942;4.026;2023-06-14T03:11:43;19.40;99.90
31133;DHT22;17779;50.942;4.026;2023-06-14T03:14:14;19.50;99.90
31133;DHT22;17779;50.942;4.026;2023-06-14T03:16:40;19.40;99.90
31133;DHT22;17779;50.942;4.026;2023-06-14T03:19:06;19.30;99.90
31133;DHT22;17779;50.942;4.026;2023-06-14T03:21:32;19.40;99.90
31133;DHT22;17779;50.942;4.026;2023-06-14T03:24:00;19.50;99.90
31133;DHT22;17779;50.942;4.026;2023-06-14T03:26:25;19.30;99.90
31133;DHT22;17779;50.942;4.026;2023-06-14T03:28:51;19.30;99.90
31133;DHT22;17779;50.942;4.026;2023-06-14T03:31:19;19.40;99.90
31133;DHT22;17779;50.942;4.026;2023-06-14T03:33:46;19.40;99.90
31133;DHT22;17779;50.942;4.026;2023-06-14T03:36:12;19.50;99.90
31133;DHT22;17779;50.942;4.026;2023-06-14T03:38:37;19.50;99.90
31133;DHT22;17779;50.942;4.026;2023-06-14T03:41:04;19.60;99.90
31133;DHT22;17779;50.942;4.026;2023-06-14T03:43:29;19.50;99.90
31133;DHT22;17779;50.942;4.026;2023-06-14T03:46:01;19.60;99.90
31133;DHT22;17779;50.942;4.026;2023-06-14T03:48:27;19.60;99.90
31133;DHT22;17779;50.942;4.026;2023-06-14T03:50:53;19.60;99.90
31133;DHT22;17779;50.942;4.026;2023-06-14T03:53:20;19.60;99.90
31133;DHT22;17779;50.942;4.026;2023-06-14T03:55:49;19.50;99.90
31133;DHT22;17779;50.942;4.026;2023-06-14T03:58:15;19.50;99.90
31133;DHT22;17779;50.942;4.026;2023-06-14T04:00:40;19.50;99.90
31133;DHT22;17779;50.942;4.026;2023-06-14T04:05:35;19.60;99.90
31133;DHT22;17779;50.942;4.026;2023-06-14T04:08:01;19.60;99.90
31133;DHT22;17779;50.942;4.026;2023-06-14T04:10:27;19.60;99.90
31133;DHT22;17779;50.942;4.026;2023-06-14T04:12:53;19.70;99.90
31133;DHT22;17779;50.942;4.026;2023-06-14T04:15:18;19.70;99.90
31133;DHT22;17779;50.942;4.026;2023-06-14T04:17:44;19.70;99.90
31133;DHT22;17779;50.942;4.026;2023-06-14T04:20:11;19.60;99.90
31133;DHT22;17779;50.942;4.026;2023-06-14T04:22:36;19.50;99.90
31133;DHT22;17779;50.942;4.026;2023-06-14T04:25:02;19.60;99.90
31133;DHT22;17779;50.942;4.026;2023-06-14T04:27:28;19.70;99.90
31133;DHT22;17779;50.942;4.026;2023-06-14T04:32:27;19.60;99.90
31133;DHT22;17779;50.942;4.026;2023-06-14T04:34:59;19.50;99.90
31133;DHT22;17779;50.942;4.026;2023-06-14T04:37:28;19.40;99.90
31133;DHT22;17779;50.942;4.026;2023-06-14T04:39:55;19.40;99.90
31133;DHT22;17779;50.942;4.026;2023-06-14T04:42:23;19.40;99.90
31133;DHT22;17779;50.942;4.026;2023-06-14T04:44:51;19.30;99.90
31133;DHT22;17779;50.942;4.026;2023-06-14T04:47:21;19.60;99.90
31133;DHT22;17779;50.942;4.026;2023-06-14T04:49:46;19.50;99.90
31133;DHT22;17779;50.942;4.026;2023-06-14T04:52:12;19.30;99.90
31133;DHT22;17779;50.942;4.026;2023-06-14T04:54:40;19.50;99.90
31133;DHT22;17779;50.942;4.026;2023-06-14T04:57:10;19.40;99.90
31133;DHT22;17779;50.942;4.026;2023-06-14T04:59:40;19.50;99.90
31133;DHT22;17779;50.942;4.026;2023-06-14T05:02:06;19.40;99.90
31133;DHT22;17779;50.942;4.026;2023-06-14T05:04:32;19.30;99.90
31133;DHT22;17779;50.942;4.026;2023-06-14T05:06:58;19.30;99.90
31133;DHT22;17779;50.942;4.026;2023-06-14T05:09:24;19.50;99.90
31133;DHT22;17779;50.942;4.026;2023-06-14T05:11:49;19.60;99.90
31133;DHT22;17779;50.942;4.026;2023-06-14T05:14:15;19.90;99.90
31133;DHT22;17779;50.942;4.026;2023-06-14T05:16:41;20.10;99.90
31133;DHT22;17779;50.942;4.026;2023-06-14T05:19:08;20.10;99.90
31133;DHT22;17779;50.942;4.026;2023-06-14T05:21:33;19.90;99.90
31133;DHT22;17779;50.942;4.026;2023-06-14T05:24:00;20.00;99.90
31133;DHT22;17779;50.942;4.026;2023-06-14T05:26:26;20.00;99.90
31133;DHT22;17779;50.942;4.026;2023-06-14T05:28:55;20.00;99.90
31133;DHT22;17779;50.942;4.026;2023-06-14T05:31:22;20.00;99.90
31133;DHT22;17779;50.942;4.026;2023-06-14T05:33:49;20.40;99.90
31133;DHT22;17779;50.942;4.026;2023-06-14T05:36:15;20.40;99.90
31133;DHT22;17779;50.942;4.026;2023-06-14T05:38:40;20.60;99.90
31133;DHT22;17779;50.942;4.026;2023-06-14T05:41:06;20.80;99.90
31133;DHT22;17779;50.942;4.026;2023-06-14T05:43:35;20.90;99.90
31133;DHT22;17779;50.942;4.026;2023-06-14T05:46:01;20.50;99.90
31133;DHT22;17779;50.942;4.026;2023-06-14T05:48:28;20.50;99.90
31133;DHT22;17779;50.942;4.026;2023-06-14T05:50:54;20.60;99.90
31133;DHT22;17779;50.942;4.026;2023-06-14T05:53:19;20.60;99.90
31133;DHT22;17779;50.942;4.026;2023-06-14T05:55:45;20.70;99.90
31133;DHT22;17779;50.942;4.026;2023-06-14T05:58:10;20.90;99.90
31133;DHT22;17779;50.942;4.026;2023-06-14T06:00:36;21.10;99.90
31133;DHT22;17779;50.942;4.026;2023-06-14T06:03:02;21.20;99.90
31133;DHT22;17779;50.942;4.026;2023-06-14T06:05:27;21.40;99.90
31133;DHT22;17779;50.942;4.026;2023-06-14T06:07:53;21.40;99.90
31133;DHT22;17779;50.942;4.026;2023-06-14T06:10:18;21.50;99.90
31133;DHT22;17779;50.942;4.026;2023-06-14T06:12:44;21.90;99.90
31133;DHT22;17779;50.942;4.026;2023-06-14T06:15:10;21.90;99.90
31133;DHT22;17779;50.942;4.026;2023-06-14T06:17:38;22.20;99.90
31133;DHT22;17779;50.942;4.026;2023-06-14T06:20:05;22.20;99.90
31133;DHT22;17779;50.942;4.026;2023-06-14T06:22:35;22.40;99.90
31133;DHT22;17779;50.942;4.026;2023-06-14T06:25:02;22.70;99.90
31133;DHT22;17779;50.942;4.026;2023-06-14T06:27:28;22.70;99.90
31133;DHT22;17779;50.942;4.026;2023-06-14T06:29:54;22.80;99.90
31133;DHT22;17779;50.942;4.026;2023-06-14T06:32:20;22.90;99.90
31133;DHT22;17779;50.942;4.026;2023-06-14T06:34:46;22.90;99.90
31133;DHT22;17779;50.942;4.026;2023-06-14T06:37:13;23.00;99.90
31133;DHT22;17779;50.942;4.026;2023-06-14T06:39:42;22.90;99.90
31133;DHT22;17779;50.942;4.026;2023-06-14T06:42:09;22.70;99.90
31133;DHT22;17779;50.942;4.026;2023-06-14T06:44:34;22.70;99.90
31133;DHT22;17779;50.942;4.026;2023-06-14T06:47:00;23.00;99.90
31133;DHT22;17779;50.942;4.026;2023-06-14T06:49:26;22.90;99.90
31133;DHT22;17779;50.942;4.026;2023-06-14T06:52:05;23.10;99.90
31133;DHT22;17779;50.942;4.026;2023-06-14T06:54:32;23.10;99.90
31133;DHT22;17779;50.942;4.026;2023-06-14T06:56:58;23.30;99.60
31133;DHT22;17779;50.942;4.026;2023-06-14T06:59:25;23.50;99.40
31133;DHT22;17779;50.942;4.026;2023-06-14T07:01:51;23.80;98.30
31133;DHT22;17779;50.942;4.026;2023-06-14T07:04:17;23.90;97.90
31133;DHT22;17779;50.942;4.026;2023-06-14T07:06:43;24.10;97.70
31133;DHT22;17779;50.942;4.026;2023-06-14T07:09:08;24.40;97.20
31133;DHT22;17779;50.942;4.026;2023-06-14T07:11:41;24.70;95.80
31133;DHT22;17779;50.942;4.026;2023-06-14T07:14:06;24.80;95.90
31133;DHT22;17779;50.942;4.026;2023-06-14T07:16:32;25.30;95.10
31133;DHT22;17779;50.942;4.026;2023-06-14T07:18:58;25.90;94.40
31133;DHT22;17779;50.942;4.026;2023-06-14T07:21:24;27.30;91.80
31133;DHT22;17779;50.942;4.026;2023-06-14T07:23:52;29.30;89.40
31133;DHT22;17779;50.942;4.026;2023-06-14T07:26:22;30.20;81.40
31133;DHT22;17779;50.942;4.026;2023-06-14T07:28:50;30.70;79.70
31133;DHT22;17779;50.942;4.026;2023-06-14T07:31:15;31.20;74.70
31133;DHT22;17779;50.942;4.026;2023-06-14T07:33:41;31.90;73.00
31133;DHT22;17779;50.942;4.026;2023-06-14T07:36:07;32.40;72.00
31133;DHT22;17779;50.942;4.026;2023-06-14T07:38:33;32.60;69.00
31133;DHT22;17779;50.942;4.026;2023-06-14T07:40:59;33.50;67.00
31133;DHT22;17779;50.942;4.026;2023-06-14T07:43:25;34.40;65.30
31133;DHT22;17779;50.942;4.026;2023-06-14T07:45:50;33.30;63.30
31133;DHT22;17779;50.942;4.026;2023-06-14T07:48:16;33.50;64.30
31133;DHT22;17779;50.942;4.026;2023-06-14T07:50:42;31.50;63.40
31133;DHT22;17779;50.942;4.026;2023-06-14T07:53:09;31.30;64.30
31133;DHT22;17779;50.942;4.026;2023-06-14T07:55:35;31.40;63.50
31133;DHT22;17779;50.942;4.026;2023-06-14T07:58:02;33.00;63.20
31133;DHT22;17779;50.942;4.026;2023-06-14T08:00:31;32.90;61.20
31133;DHT22;17779;50.942;4.026;2023-06-14T08:02:57;32.40;61.70
31133;DHT22;17779;50.942;4.026;2023-06-14T08:05:25;32.10;64.20
31133;DHT22;17779;50.942;4.026;2023-06-14T08:07:51;34.60;61.60
31133;DHT22;17779;50.942;4.026;2023-06-14T08:10:17;33.10;62.60
31133;DHT22;17779;50.942;4.026;2023-06-14T08:12:42;35.00;60.90
31133;DHT22;17779;50.942;4.026;2023-06-14T08:15:08;36.00;58.70
31133;DHT22;17779;50.942;4.026;2023-06-14T08:17:34;36.80;56.90
31133;DHT22;17779;50.942;4.026;2023-06-14T08:20:01;36.70;55.60
31133;DHT22;17779;50.942;4.026;2023-06-14T08:22:28;35.70;55.60
31133;DHT22;17779;50.942;4.026;2023-06-14T08:24:57;35.00;55.90
31133;DHT22;17779;50.942;4.026;2023-06-14T08:27:22;35.40;56.50
31133;DHT22;17779;50.942;4.026;2023-06-14T08:29:48;36.30;56.40
31133;DHT22;17779;50.942;4.026;2023-06-14T08:32:14;36.30;56.20
31133;DHT22;17779;50.942;4.026;2023-06-14T08:34:40;37.90;55.00
31133;DHT22;17779;50.942;4.026;2023-06-14T08:37:06;38.40;54.20
31133;DHT22;17779;50.942;4.026;2023-06-14T08:39:33;38.20;53.40
31133;DHT22;17779;50.942;4.026;2023-06-14T08:41:58;38.40;52.80
31133;DHT22;17779;50.942;4.026;2023-06-14T08:44:27;36.80;53.30
31133;DHT22;17779;50.942;4.026;2023-06-14T08:46:54;37.40;53.20
31133;DHT22;17779;50.942;4.026;2023-06-14T08:49:22;38.50;51.50
31133;DHT22;17779;50.942;4.026;2023-06-14T08:51:49;37.20;52.20
31133;DHT22;17779;50.942;4.026;2023-06-14T08:54:17;37.90;51.60
31133;DHT22;17779;50.942;4.026;2023-06-14T08:56:46;39.50;50.80
31133;DHT22;17779;50.942;4.026;2023-06-14T08:59:13;36.60;51.20
31133;DHT22;17779;50.942;4.026;2023-06-14T09:01:41;37.50;52.70
31133;DHT22;17779;50.942;4.026;2023-06-14T09:04:07;38.80;51.30
31133;DHT22;17779;50.942;4.026;2023-06-14T09:06:33;39.20;50.80
31133;DHT22;17779;50.942;4.026;2023-06-14T09:08:59;39.60;50.20
31133;DHT22;17779;50.942;4.026;2023-06-14T09:11:25;39.80;48.80
31133;DHT22;17779;50.942;4.026;2023-06-14T09:13:52;39.90;49.20
31133;DHT22;17779;50.942;4.026;2023-06-14T09:16:17;39.30;49.40
31133;DHT22;17779;50.942;4.026;2023-06-14T09:18:44;38.80;49.90
31133;DHT22;17779;50.942;4.026;2023-06-14T09:21:12;39.30;49.40
31133;DHT22;17779;50.942;4.026;2023-06-14T09:23:38;39.30;49.30
31133;DHT22;17779;50.942;4.026;2023-06-14T09:26:11;39.60;48.70
31133;DHT22;17779;50.942;4.026;2023-06-14T09:28:44;38.80;47.90
31133;DHT22;17779;50.942;4.026;2023-06-14T09:31:10;38.80;49.20
31133;DHT22;17779;50.942;4.026;2023-06-14T09:33:36;39.60;48.20
31133;DHT22;17779;50.942;4.026;2023-06-14T09:36:02;37.60;48.90
31133;DHT22;17779;50.942;4.026;2023-06-14T09:38:28;37.10;49.50
31133;DHT22;17779;50.942;4.026;2023-06-14T09:40:56;36.60;48.50
31133;DHT22;17779;50.942;4.026;2023-06-14T09:43:21;36.40;49.40
31133;DHT22;17779;50.942;4.026;2023-06-14T09:45:48;34.40;50.50
31133;DHT22;17779;50.942;4.026;2023-06-14T09:48:14;35.70;51.40
31133;DHT22;17779;50.942;4.026;2023-06-14T09:50:44;38.00;50.50
31133;DHT22;17779;50.942;4.026;2023-06-14T09:53:11;39.10;48.30
31133;DHT22;17779;50.942;4.026;2023-06-14T09:55:37;40.00;48.10
31133;DHT22;17779;50.942;4.026;2023-06-14T09:58:06;39.90;46.80
31133;DHT22;17779;50.942;4.026;2023-06-14T10:00:33;37.80;47.00
31133;DHT22;17779;50.942;4.026;2023-06-14T10:03:00;35.90;48.40
31133;DHT22;17779;50.942;4.026;2023-06-14T10:05:28;34.30;50.20
31133;DHT22;17779;50.942;4.026;2023-06-14T10:08:05;35.40;50.50
31133;DHT22;17779;50.942;4.026;2023-06-14T10:13:02;35.20;49.70
31133;DHT22;17779;50.942;4.026;2023-06-14T10:15:30;35.40;49.60
31133;DHT22;17779;50.942;4.026;2023-06-14T10:17:59;34.80;50.30
31133;DHT22;17779;50.942;4.026;2023-06-14T10:23:02;35.80;49.80
31133;DHT22;17779;50.942;4.026;2023-06-14T10:25:29;34.80;49.20
31133;DHT22;17779;50.942;4.026;2023-06-14T10:30:40;35.80;50.70
31133;DHT22;17779;50.942;4.026;2023-06-14T10:33:26;38.10;49.80
31133;DHT22;17779;50.942;4.026;2023-06-14T10:36:06;38.90;48.90
31133;DHT22;17779;50.942;4.026;2023-06-14T10:38:34;38.30;48.00
31133;DHT22;17779;50.942;4.026;2023-06-14T10:41:01;38.70;48.20
31133;DHT22;17779;50.942;4.026;2023-06-14T10:43:28;37.90;48.50
31133;DHT22;17779;50.942;4.026;2023-06-14T10:46:11;38.70;47.50
31133;DHT22;17779;50.942;4.026;2023-06-14T10:48:40;38.70;47.10
31133;DHT22;17779;50.942;4.026;2023-06-14T10:51:06;39.80;46.60
31133;DHT22;17779;50.942;4.026;2023-06-14T10:53:39;36.30;47.90
31133;DHT22;17779;50.942;4.026;2023-06-14T10:56:08;36.80;47.50
31133;DHT22;17779;50.942;4.026;2023-06-14T10:58:34;36.20;48.70
31133;DHT22;17779;50.942;4.026;2023-06-14T11:00:59;35.40;48.90
31133;DHT22;17779;50.942;4.026;2023-06-14T11:06:29;36.70;48.40
31133;DHT22;17779;50.942;4.026;2023-06-14T11:09:12;37.40;47.70
31133;DHT22;17779;50.942;4.026;2023-06-14T11:11:44;36.10;47.00
31133;DHT22;17779;50.942;4.026;2023-06-14T11:14:12;34.40;48.40
31133;DHT22;17779;50.942;4.026;2023-06-14T11:16:37;36.20;48.80
31133;DHT22;17779;50.942;4.026;2023-06-14T11:19:03;37.60;47.40
31133;DHT22;17779;50.942;4.026;2023-06-14T11:21:29;38.50;45.10
31133;DHT22;17779;50.942;4.026;2023-06-14T11:23:57;36.70;46.50
31133;DHT22;17779;50.942;4.026;2023-06-14T11:26:30;38.10;46.50
31133;DHT22;17779;50.942;4.026;2023-06-14T11:28:56;39.80;45.40
31133;DHT22;17779;50.942;4.026;2023-06-14T11:31:22;39.70;45.60
31133;DHT22;17779;50.942;4.026;2023-06-14T11:33:56;38.50;45.10
31133;DHT22;17779;50.942;4.026;2023-06-14T11:36:28;37.40;45.60
31133;DHT22;17779;50.942;4.026;2023-06-14T11:39:02;37.00;47.20
31133;DHT22;17779;50.942;4.026;2023-06-14T11:41:50;38.10;45.80
31133;DHT22;17779;50.942;4.026;2023-06-14T11:44:16;37.20;46.10
31133;DHT22;17779;50.942;4.026;2023-06-14T11:46:42;36.50;45.40
31133;DHT22;17779;50.942;4.026;2023-06-14T11:49:08;36.60;45.60
31133;DHT22;17779;50.942;4.026;2023-06-14T11:51:35;38.10;45.50
31133;DHT22;17779;50.942;4.026;2023-06-14T11:54:01;39.70;44.20
31133;DHT22;17779;50.942;4.026;2023-06-14T11:56:28;40.00;43.50
31133;DHT22;17779;50.942;4.026;2023-06-14T11:58:54;39.50;44.20
31133;DHT22;17779;50.942;4.026;2023-06-14T12:01:22;40.10;44.10
31133;DHT22;17779;50.942;4.026;2023-06-14T12:03:48;39.80;43.90
31133;DHT22;17779;50.942;4.026;2023-06-14T12:06:14;38.70;44.20
31133;DHT22;17779;50.942;4.026;2023-06-14T12:08:40;38.00;44.30
31133;DHT22;17779;50.942;4.026;2023-06-14T12:11:06;35.30;45.30
31133;DHT22;17779;50.942;4.026;2023-06-14T12:13:33;35.40;46.40
31133;DHT22;17779;50.942;4.026;2023-06-14T12:15:59;36.80;46.50
31133;DHT22;17779;50.942;4.026;2023-06-14T12:18:32;37.00;44.90
31133;DHT22;17779;50.942;4.026;2023-06-14T12:20:59;36.60;45.10
31133;DHT22;17779;50.942;4.026;2023-06-14T12:23:47;39.10;44.40
31133;DHT22;17779;50.942;4.026;2023-06-14T12:26:17;36.90;44.00
31133;DHT22;17779;50.942;4.026;2023-06-14T12:28:43;35.70;45.60
31133;DHT22;17779;50.942;4.026;2023-06-14T12:31:10;36.70;44.70
31133;DHT22;17779;50.942;4.026;2023-06-14T12:33:36;37.40;44.40
31133;DHT22;17779;50.942;4.026;2023-06-14T12:36:06;37.90;43.80
31133;DHT22;17779;50.942;4.026;2023-06-14T12:38:32;37.60;43.30
31133;DHT22;17779;50.942;4.026;2023-06-14T12:40:58;38.20;43.80
31133;DHT22;17779;50.942;4.026;2023-06-14T12:43:24;38.50;43.20
31133;DHT22;17779;50.942;4.026;2023-06-14T12:45:49;37.70;43.60
31133;DHT22;17779;50.942;4.026;2023-06-14T12:48:15;37.50;43.90
31133;DHT22;17779;50.942;4.026;2023-06-14T12:50:41;33.50;46.30
31133;DHT22;17779;50.942;4.026;2023-06-14T12:53:06;32.80;47.80
31133;DHT22;17779;50.942;4.026;2023-06-14T12:55:32;32.20;48.60
31133;DHT22;17779;50.942;4.026;2023-06-14T12:57:58;32.40;49.10
31133;DHT22;17779;50.942;4.026;2023-06-14T13:00:23;31.80;49.90
31133;DHT22;17779;50.942;4.026;2023-06-14T13:02:51;31.30;50.10
31133;DHT22;17779;50.942;4.026;2023-06-14T13:05:17;30.80;50.50
31133;DHT22;17779;50.942;4.026;2023-06-14T13:07:43;30.80;49.80
31133;DHT22;17779;50.942;4.026;2023-06-14T13:10:09;30.10;50.80
31133;DHT22;17779;50.942;4.026;2023-06-14T13:12:35;29.80;51.50
31133;DHT22;17779;50.942;4.026;2023-06-14T13:15:01;29.80;52.30
31133;DHT22;17779;50.942;4.026;2023-06-14T13:17:26;29.60;51.70
31133;DHT22;17779;50.942;4.026;2023-06-14T13:19:52;29.90;52.30
31133;DHT22;17779;50.942;4.026;2023-06-14T13:22:18;30.20;51.30
31133;DHT22;17779;50.942;4.026;2023-06-14T13:24:44;30.50;50.80
31133;DHT22;17779;50.942;4.026;2023-06-14T13:27:11;30.80;50.40
31133;DHT22;17779;50.942;4.026;2023-06-14T13:29:36;30.70;51.30
31133;DHT22;17779;50.942;4.026;2023-06-14T13:32:02;30.80;51.10
31133;DHT22;17779;50.942;4.026;2023-06-14T13:34:30;30.90;51.40
31133;DHT22;17779;50.942;4.026;2023-06-14T13:36:56;30.50;50.80
31133;DHT22;17779;50.942;4.026;2023-06-14T13:39:22;30.30;51.60
31133;DHT22;17779;50.942;4.026;2023-06-14T13:41:47;30.50;51.60
31133;DHT22;17779;50.942;4.026;2023-06-14T13:44:13;30.60;51.00
31133;DHT22;17779;50.942;4.026;2023-06-14T13:46:40;30.70;51.00
31133;DHT22;17779;50.942;4.026;2023-06-14T13:49:08;30.50;51.20
31133;DHT22;17779;50.942;4.026;2023-06-14T13:51:35;30.50;51.20
31133;DHT22;17779;50.942;4.026;2023-06-14T13:54:00;30.20;51.60
31133;DHT22;17779;50.942;4.026;2023-06-14T13:56:27;29.80;51.30
31133;DHT22;17779;50.942;4.026;2023-06-14T13:58:54;30.00;52.20
31133;DHT22;17779;50.942;4.026;2023-06-14T14:01:19;29.90;51.20
31133;DHT22;17779;50.942;4.026;2023-06-14T14:03:46;29.70;51.30
31133;DHT22;17779;50.942;4.026;2023-06-14T14:06:12;29.40;52.30
31133;DHT22;17779;50.942;4.026;2023-06-14T14:08:38;29.50;52.80
31133;DHT22;17779;50.942;4.026;2023-06-14T14:11:05;29.70;52.80
31133;DHT22;17779;50.942;4.026;2023-06-14T14:13:32;29.00;52.60
31133;DHT22;17779;50.942;4.026;2023-06-14T14:15:57;28.70;53.40
31133;DHT22;17779;50.942;4.026;2023-06-14T14:18:24;28.80;53.60
31133;DHT22;17779;50.942;4.026;2023-06-14T14:20:49;28.90;53.50
31133;DHT22;17779;50.942;4.026;2023-06-14T14:23:15;29.20;53.50
31133;DHT22;17779;50.942;4.026;2023-06-14T14:25:42;29.20;53.40
31133;DHT22;17779;50.942;4.026;2023-06-14T14:28:08;29.00;53.30
31133;DHT22;17779;50.942;4.026;2023-06-14T14:30:34;29.10;53.60
31133;DHT22;17779;50.942;4.026;2023-06-14T14:32:59;29.10;52.50
31133;DHT22;17779;50.942;4.026;2023-06-14T14:35:25;28.80;53.00
31133;DHT22;17779;50.942;4.026;2023-06-14T14:37:55;28.70;53.00
31133;DHT22;17779;50.942;4.026;2023-06-14T14:40:21;28.80;52.10
31133;DHT22;17779;50.942;4.026;2023-06-14T14:42:47;28.60;52.60
31133;DHT22;17779;50.942;4.026;2023-06-14T14:45:13;28.60;52.20
31133;DHT22;17779;50.942;4.026;2023-06-14T14:47:40;28.30;52.70
31133;DHT22;17779;50.942;4.026;2023-06-14T14:50:09;28.50;53.10
31133;DHT22;17779;50.942;4.026;2023-06-14T14:52:35;28.60;52.80
31133;DHT22;17779;50.942;4.026;2023-06-14T14:55:01;28.60;52.40
31133;DHT22;17779;50.942;4.026;2023-06-14T14:57:27;28.60;52.30
31133;DHT22;17779;50.942;4.026;2023-06-14T14:59:52;28.60;52.60
31133;DHT22;17779;50.942;4.026;2023-06-14T15:02:18;28.50;52.60
31133;DHT22;17779;50.942;4.026;2023-06-14T15:04:44;28.60;52.30
31133;DHT22;17779;50.942;4.026;2023-06-14T15:07:10;28.80;51.80
31133;DHT22;17779;50.942;4.026;2023-06-14T15:09:37;28.30;52.00
31133;DHT22;17779;50.942;4.026;2023-06-14T15:12:03;28.20;52.80
31133;DHT22;17779;50.942;4.026;2023-06-14T15:14:29;28.60;52.70
31133;DHT22;17779;50.942;4.026;2023-06-14T15:16:55;28.60;52.40
31133;DHT22;17779;50.942;4.026;2023-06-14T15:19:20;28.40;51.80
31133;DHT22;17779;50.942;4.026;2023-06-14T15:21:46;28.40;52.00
31133;DHT22;17779;50.942;4.026;2023-06-14T15:24:11;28.10;51.50
31133;DHT22;17779;50.942;4.026;2023-06-14T15:26:37;28.10;52.10
31133;DHT22;17779;50.942;4.026;2023-06-14T15:29:04;28.30;52.00
31133;DHT22;17779;50.942;4.026;2023-06-14T15:31:30;28.30;51.30
31133;DHT22;17779;50.942;4.026;2023-06-14T15:33:55;28.10;51.70
31133;DHT22;17779;50.942;4.026;2023-06-14T15:36:21;28.00;51.80
31133;DHT22;17779;50.942;4.026;2023-06-14T15:38:48;27.80;52.80
31133;DHT22;17779;50.942;4.026;2023-06-14T15:41:14;27.90;51.90
31133;DHT22;17779;50.942;4.026;2023-06-14T15:43:40;28.00;51.90
31133;DHT22;17779;50.942;4.026;2023-06-14T15:46:06;28.00;52.20
31133;DHT22;17779;50.942;4.026;2023-06-14T15:48:32;28.10;53.00
31133;DHT22;17779;50.942;4.026;2023-06-14T15:50:58;28.10;52.40
31133;DHT22;17779;50.942;4.026;2023-06-14T15:53:23;28.00;52.30